Latest Weather Observations for Kuitpo

IDS60901

Issued at 12:21 am CDT Friday 21 January 2022 (issued every 10 minutes, with the page automatically refreshed every 10 minutes)

About weather observations | Map of Adelaide area stations | Latest observations for Adelaide area | Other Formats
Station Details ID: 023887 Name: KUITPO FOREST RESERVE Lat: -35.17 Lon: 138.68 Height: 365.0 m
Data from the previous 72 hours. | See also: Recent months at Kuitpo
Date/Time
CDT
Temp
°C
App
Temp
°C
Dew
Point
°C
Rel
Hum
%
Delta-T
°C
Wind Press
QNH
hPa
Press
MSL
hPa
Rain since
9am
mm
Dir  Spd
km/h
Gust
km/h
Spd
kts
Gust
kts
21/12:00am 24.7 19.6 6.0 30 9.7 E 22 32 12 17 1019.2 1017.8 0.0
 
Date/Time
CDT
Temp
°C
App
Temp
°C
Dew
Point
°C
Rel
Hum
%
Delta-T
°C
Wind Press
QNH
hPa
Press
MSL
hPa
Rain since
9am
mm
Dir  Spd
km/h
Gust
km/h
Spd
kts
Gust
kts
20/11:30pm 24.6 20.3 5.4 29 9.9 E 17 24 9 13 1019.2 1017.8 0.0
20/11:00pm 25.0 19.7 5.2 28 10.2 E 22 30 12 16 1018.7 1017.4 0.0
20/10:30pm 25.4 19.6 4.5 26 10.6 E 24 33 13 18 1018.6 1017.3 0.0
20/10:00pm 26.0 21.1 3.9 24 11.2 E 19 26 10 14 1018.7 1017.4 0.0
20/09:30pm 26.8 21.7 3.3 22 11.8 E 19 28 10 15 1018.3 1017.0 0.0
20/09:00pm 27.3 22.6 3.1 21 12.2 E 17 28 9 15 1017.9 1016.6 0.0
20/08:30pm 28.0 22.9 3.0 20 12.6 ENE 19 32 10 17 1017.5 1016.1 0.0
20/08:00pm 28.9 22.7 2.2 18 13.4 E 24 37 13 20 1017.3 1015.9 0.0
20/07:30pm 29.6 23.1 2.8 18 13.6 E 26 37 14 20 1017.1 1015.7 0.0
20/07:09pm 29.9 22.9 2.2 17 14.0 E 28 50 15 27 1017.0 1015.6 0.0
20/07:00pm 30.0 23.2 3.1 18 13.8 E 28 43 15 23 1017.1 1015.7 0.0
20/06:30pm 30.2 23.3 2.5 17 14.0 E 28 48 15 26 1016.9 1015.5 0.0
20/06:00pm 30.3 22.7 4.1 19 13.7 E 33 54 18 29 1017.1 1015.7 0.0
20/05:50pm 30.2 23.4 3.3 18 13.8 E 28 46 15 25 1017.1 1015.7 0.0
20/05:30pm 30.6 24.0 4.4 19 13.7 E 28 44 15 24 1017.2 1015.8 0.0
20/05:01pm 30.5 23.6 2.7 17 14.2 ENE 28 46 15 25 1017.3 1015.9 0.0
20/05:00pm 30.8 24.5 3.8 18 14.1 ENE 26 46 14 25 1017.4 1016.0 0.0
20/04:30pm 30.5 23.9 4.3 19 13.7 ENE 28 52 15 28 1017.6 1016.2 0.0
20/04:15pm 30.8 24.1 3.8 18 14.1 E 28 50 15 27 1017.6 1016.2 0.0
20/04:00pm 30.3 23.7 4.1 19 13.7 E 28 44 15 24 1017.8 1016.4 0.0
20/03:30pm 30.1 23.5 6.1 22 12.9 E 30 50 16 27 1018.1 1016.8 0.0
20/03:00pm 29.4 22.4 6.1 23 12.5 ENE 32 54 17 29 1018.5 1017.2 0.0
20/02:30pm 29.3 22.2 5.4 22 12.7 ENE 32 57 17 31 1018.7 1017.4 0.0
20/02:04pm 28.5 21.3 6.0 24 12.0 ENE 33 57 18 31 1018.8 1017.5 0.0
20/02:00pm 29.2 22.3 6.6 24 12.2 ENE 32 48 17 26 1018.9 1017.6 0.0
20/01:30pm 28.9 22.0 6.3 24 12.1 ENE 32 48 17 26 1019.2 1017.8 0.0
20/01:05pm 28.3 21.2 8.1 28 11.2 E 35 54 19 29 1019.5 1018.1 0.0
20/01:00pm 27.8 20.2 7.6 28 11.0 E 37 54 20 29 1019.5 1018.1 0.0
20/12:30pm 28.5 23.2 9.7 31 10.6 ENE 28 52 15 28 1019.9 1018.5 0.0
20/12:00pm 27.2 21.3 10.4 35 9.6 ENE 32 63 17 34 1020.1 1018.7 0.0
20/11:30am 26.5 20.3 10.2 36 9.2 ENE 33 57 18 31 1020.3 1019.0 0.0
20/11:00am 26.1 19.9 11.5 40 8.4 E 35 56 19 30 1020.5 1019.2 0.0
20/10:37am 25.7 20.7 12.2 43 7.9 ENE 30 50 16 27 1020.5 1019.2 0.0
20/10:30am 25.9 21.8 12.7 44 7.8 ENE 26 43 14 23 1020.6 1019.3 0.0
20/10:00am 24.8 20.4 13.0 47 7.0 ENE 28 48 15 26 1020.6 1019.3 0.0
20/09:32am 24.5 20.6 14.3 53 6.1 ENE 28 46 15 25 1020.8 1019.5 0.0
20/09:30am 24.2 19.3 13.7 52 6.2 ENE 32 48 17 26 1020.7 1019.4 0.0
20/09:11am 23.8 19.6 13.6 52 6.0 ENE 28 46 15 25 1020.6 1019.3 0.0
20/09:00am 24.0 21.1 15.2 58 5.3 ENE 24 43 13 23 1020.6 1019.3 0.0
20/08:30am 22.9 20.3 15.0 61 4.8 ENE 22 39 12 21 1020.5 1019.2 0.0
20/08:00am 22.3 20.1 14.9 63 4.5 ENE 20 33 11 18 1020.2 1018.8 0.0
20/07:30am 21.6 19.4 15.0 66 4.0 ENE 20 30 11 16 1020.1 1018.7 0.0
20/07:00am 20.9 18.8 15.2 70 3.4 E 20 33 11 18 1020.0 1018.6 0.0
20/06:30am 20.1 17.6 15.1 73 3.0 E 22 35 12 19 1019.8 1018.4 0.0
20/06:00am 19.3 17.3 15.0 76 2.6 E 19 28 10 15 1019.5 1018.1 0.0
20/05:30am 19.1 17.4 14.6 75 2.7 E 17 22 9 12 1019.3 1017.9 0.0
20/05:00am 19.3 18.2 14.3 73 2.9 E 13 19 7 10 1018.8 1017.5 0.0
20/04:30am 19.5 17.6 14.1 71 3.2 E 17 24 9 13 1018.5 1017.2 0.0
20/04:00am 18.8 16.9 13.0 69 3.3 ESE 15 20 8 11 1018.5 1017.2 0.0
20/03:30am 19.6 17.0 12.1 62 4.2 ESE 17 26 9 14 1017.9 1016.6 0.0
20/03:00am 20.5 17.7 11.4 56 5.1 E 17 24 9 13 1018.0 1016.7 0.0
20/02:30am 20.4 17.4 10.8 54 5.3 ESE 17 20 9 11 1017.9 1016.6 0.0
20/02:00am 19.9 17.6 10.6 55 5.1 ESE 13 17 7 9 1017.8 1016.4 0.0
20/01:30am 19.9 17.1 10.0 53 5.4 SE 15 26 8 14 1017.9 1016.6 0.0
20/01:00am 19.6 16.8 10.0 54 5.2 SE 15 20 8 11 1017.8 1016.4 0.0
20/12:30am 19.6 16.5 10.3 55 5.1 SE 17 24 9 13 1017.8 1016.4 0.0
20/12:00am 18.4 15.8 10.8 61 4.2 SSE 15 20 8 11 1017.7 1016.3 0.0
 
Date/Time
CDT
Temp
°C
App
Temp
°C
Dew
Point
°C
Rel
Hum
%
Delta-T
°C
Wind Press
QNH
hPa
Press
MSL
hPa
Rain since
9am
mm
Dir  Spd
km/h
Gust
km/h
Spd
kts
Gust
kts
19/11:30pm 17.8 15.3 10.9 64 3.8 SSE 15 20 8 11 1017.6 1016.2 0.0
19/11:00pm 17.4 14.9 11.0 66 3.5 SSE 15 20 8 11 1017.6 1016.2 0.0
19/10:30pm 17.2 14.7 11.0 67 3.4 SSE 15 22 8 12 1017.7 1016.3 0.0
19/10:00pm 17.2 14.7 11.0 67 3.4 SSE 15 20 8 11 1017.7 1016.3 0.0
19/09:30pm 17.6 15.4 10.9 65 3.7 SSE 13 19 7 10 1017.5 1016.1 0.0
19/09:00pm 18.2 15.9 10.6 61 4.2 SE 13 19 7 10 1017.1 1015.7 0.0
19/08:30pm 19.0 17.3 11.1 60 4.4 SE 11 15 6 8 1017.0 1015.6 0.0
19/08:00pm 20.3 18.5 10.7 54 5.3 SE 11 20 6 11 1016.9 1015.5 0.0
19/07:30pm 21.2 18.3 9.8 48 6.2 ESE 15 24 8 13 1016.6 1015.2 0.0
19/07:00pm 21.9 18.4 10.1 47 6.5 ESE 19 24 10 13 1016.5 1015.1 0.0
19/06:30pm 22.5 18.8 10.3 46 6.8 ESE 20 28 11 15 1016.5 1015.1 0.0
19/06:00pm 23.0 20.1 9.8 43 7.3 ESE 15 28 8 15 1016.3 1014.9 0.0
19/05:30pm 23.4 19.6 9.0 40 7.9 ESE 19 28 10 15 1016.7 1015.3 0.0
19/05:00pm 23.3 17.7 7.0 35 8.6 E 26 37 14 20 1016.7 1015.3 0.0
19/04:30pm 23.0 18.6 7.5 37 8.2 ESE 20 32 11 17 1016.7 1015.3 0.0
19/04:00pm 22.7 18.5 7.3 37 8.1 E 19 28 10 15 1016.9 1015.5 0.0
19/03:30pm 22.0 17.6 7.4 39 7.7 E 20 35 11 19 1017.1 1015.7 0.0
19/03:00pm 21.4 17.0 7.6 41 7.3 ESE 20 30 11 16 1017.4 1016.0 0.0
19/02:30pm 21.0 16.9 8.6 45 6.6 ESE 20 33 11 18 1017.7 1016.3 0.0
19/02:00pm 20.6 16.1 8.6 46 6.4 ESE 22 35 12 19 1017.7 1016.3 0.0
19/01:30pm 20.3 16.6 10.1 52 5.6 ESE 20 35 11 19 1017.7 1016.3 0.0
19/01:00pm 19.6 16.0 10.0 54 5.2 SE 19 35 10 19 1018.1 1016.8 0.0
19/12:30pm 19.1 15.0 8.7 51 5.5 SE 20 37 11 20 1018.3 1017.0 0.0
19/12:07pm 18.4 12.8 8.9 54 5.0 E 28 46 15 25 1018.2 1016.9 0.0
19/12:00pm 18.7 14.1 9.5 55 4.9 ESE 24 39 13 21 1018.3 1017.0 0.0
19/11:30am 17.9 13.0 8.5 54 4.9 ESE 24 39 13 21 1018.4 1017.1 0.0
19/11:00am 17.1 12.3 8.8 58 4.4 ESE 24 41 13 22 1018.5 1017.2 0.0
19/10:32am 15.8 9.7 8.1 60 4.0 ESE 30 50 16 27 1018.3 1017.0 0.0
19/10:30am 16.0 10.2 8.0 59 4.1 ESE 28 43 15 23 1018.4 1017.1 0.0
19/10:00am 15.5 9.8 8.3 62 3.7 E 28 48 15 26 1018.6 1017.3 0.0
19/09:30am 14.7 8.3 8.4 66 3.2 ESE 32 50 17 27 1018.6 1017.3 0.0
19/09:27am 14.4 7.9 8.1 66 3.2 ESE 32 50 17 27 1018.6 1017.3 0.0
19/09:00am 13.8 7.3 8.2 69 2.8 ESE 32 46 17 25 1018.6 1017.3 0.0
19/08:42am 13.7 7.2 8.3 70 2.7 ESE 32 50 17 27 1018.6 1017.3 0.0
19/08:30am 13.4 7.0 8.5 72 2.5 E 32 48 17 26 1018.6 1017.3 0.0
19/08:10am 12.7 7.0 8.4 75 2.2 ESE 28 46 15 25 1018.4 1017.1 0.0
19/08:00am 12.4 5.9 8.3 76 2.1 ESE 32 48 17 26 1018.4 1017.1 0.0
19/07:30am 11.8 6.1 8.5 80 1.7 ESE 28 43 15 23 1018.1 1016.8 0.0
19/07:00am 11.2 5.5 8.4 83 1.4 ESE 28 43 15 23 1017.7 1016.3 0.0
19/06:30am 10.7 5.0 8.3 85 1.2 ESE 28 37 15 20 1017.4 1016.0 0.0
19/06:00am 10.9 5.2 8.3 84 1.3 ESE 28 44 15 24 1017.2 1015.8 0.0
19/05:30am 11.1 5.7 8.1 82 1.5 ESE 26 39 14 21 1017.1 1015.7 0.0
19/05:00am 11.3 5.6 8.2 81 1.5 ESE 28 43 15 23 1017.0 1015.6 0.0
19/04:30am 11.4 6.0 8.1 80 1.6 ESE 26 41 14 22 1016.9 1015.5 0.0
19/04:00am 11.8 6.0 8.1 78 1.9 ESE 28 41 15 22 1016.9 1015.5 0.0
19/03:32am 12.1 6.3 8.0 76 2.1 ESE 28 46 15 25 1016.9 1015.5 0.0
19/03:30am 12.2 6.1 8.1 76 2.1 ESE 30 46 16 25 1016.9 1015.5 0.0
19/03:09am 12.3 5.8 8.0 75 2.2 ESE 32 50 17 27 1016.7 1015.3 0.0
19/03:00am 12.5 6.4 8.2 75 2.2 ESE 30 46 16 25 1016.7 1015.3 0.0
19/02:31am 12.7 7.2 9.2 79 1.8 ESE 28 50 15 27 1016.6 1015.2 0.0
19/02:30am 12.7 7.2 9.2 79 1.8 ESE 28 43 15 23 1016.6 1015.2 0.0
19/02:00am 12.9 7.6 9.7 81 1.7 SE 28 48 15 26 1016.8 1015.4 0.0
19/01:30am 13.2 8.0 10.4 83 1.5 SE 28 48 15 26 1016.9 1015.5 0.0
19/01:05am 13.4 8.3 10.6 83 1.5 SE 28 46 15 25 1017.0 1015.6 0.0
19/01:00am 13.3 8.6 10.7 84 1.4 SE 26 44 14 24 1017.1 1015.7 0.0
19/12:34am 13.5 8.4 10.7 83 1.5 SE 28 46 15 25 1017.0 1015.6 0.0
19/12:30am 13.5 8.4 10.7 83 1.5 SE 28 44 15 24 1017.0 1015.6 0.0
19/12:00am 13.6 9.0 11.1 85 1.3 SE 26 41 14 22 1016.8 1015.4 0.0
 
Date/Time
CDT
Temp
°C
App
Temp
°C
Dew
Point
°C
Rel
Hum
%
Delta-T
°C
Wind Press
QNH
hPa
Press
MSL
hPa
Rain since
9am
mm
Dir  Spd
km/h
Gust
km/h
Spd
kts
Gust
kts
18/11:30pm 13.6 8.6 11.1 85 1.3 SE 28 46 15 25 1016.5 1015.1 0.0
18/11:19pm 13.6 8.6 11.1 85 1.3 SE 28 48 15 26 1016.6 1015.2 0.0
18/11:00pm 13.5 8.9 11.0 85 1.3 SE 26 43 14 23 1016.7 1015.3 0.0
18/10:37pm 13.5 8.5 10.9 84 1.4 SE 28 46 15 25 1016.7 1015.3 0.0
18/10:30pm 13.5 8.8 10.7 83 1.5 SE 26 43 14 23 1016.6 1015.2 0.0
18/10:09pm 13.5 8.4 10.7 83 1.5 SE 28 48 15 26 1016.4 1015.0 0.0
18/10:00pm 13.6 9.4 11.0 84 1.4 SE 24 41 13 22 1016.5 1015.1 0.0
18/09:30pm 13.5 8.8 10.5 82 1.6 SE 26 39 14 21 1016.3 1014.9 0.0
18/09:05pm 13.7 8.6 10.7 82 1.6 SE 28 46 15 25 1016.4 1015.0 0.0
18/09:00pm 13.8 9.5 10.8 82 1.6 SE 24 41 13 22 1016.4 1015.0 0.0
18/08:30pm 14.0 9.5 10.2 78 2.0 SE 24 39 13 21 1016.0 1014.7 0.0
18/08:04pm 14.2 8.9 10.0 76 2.2 SE 28 48 15 26 1015.8 1014.5 0.0
18/08:00pm 14.2 9.7 10.0 76 2.2 SE 24 48 13 26 1015.7 1014.4 0.0
18/07:30pm 14.5 10.2 9.5 72 2.6 SSE 22 43 12 23 1015.8 1014.5 0.0
18/07:00pm 14.7 9.6 9.1 69 2.9 SSE 26 41 14 22 1015.5 1014.2 0.0
18/06:30pm 15.3 11.0 9.4 68 3.1 SE 22 41 12 22 1015.3 1013.9 0.0
18/06:00pm 15.9 11.7 9.8 67 3.2 SSE 22 39 12 21 1015.4 1014.1 0.0
18/05:30pm 17.1 13.2 9.3 60 4.1 SSE 20 41 11 22 1015.1 1013.7 0.0
18/05:00pm 17.0 12.2 8.7 58 4.3 SE 24 39 13 21 1015.0 1013.6 0.0
18/04:30pm 17.4 13.4 9.1 58 4.4 SE 20 43 11 23 1015.1 1013.7 0.0
18/04:00pm 17.5 12.4 7.8 53 5.0 SSE 24 43 13 23 1015.2 1013.8 0.0
18/03:30pm 19.3 15.3 8.9 51 5.5 SE 20 33 11 18 1015.3 1013.9 0.0
18/03:00pm 18.0 12.6 8.0 52 5.2 SE 26 41 14 22 1015.4 1014.1 0.0
18/02:30pm 18.3 13.2 7.7 50 5.5 SE 24 39 13 21 1015.4 1014.1 0.0
18/02:00pm 18.9 14.5 8.8 52 5.4 SE 22 41 12 22 1015.6 1014.3 0.0
18/01:30pm 18.6 14.3 7.7 49 5.7 SSE 20 37 11 20 1015.7 1014.4 0.0
18/01:00pm 18.3 13.5 7.4 49 5.6 SE 22 39 12 21 1015.8 1014.5 0.0
18/12:30pm 18.2 13.2 7.9 51 5.3 ESE 24 44 13 24 1016.3 1014.9 0.0
18/12:00pm 17.2 12.3 8.4 56 4.6 ESE 24 37 13 20 1016.6 1015.2 0.0
18/11:30am 17.2 12.4 8.9 58 4.4 ESE 24 35 13 19 1016.6 1015.2 0.0
18/11:06am 15.9 10.2 8.2 60 4.0 ESE 28 48 15 26 1016.5 1015.1 0.0
18/11:00am 15.9 10.5 8.2 60 4.0 ESE 26 43 14 23 1016.7 1015.3 0.0
18/10:30am 15.4 9.6 7.9 61 3.8 ESE 28 43 15 23 1016.8 1015.4 0.0
18/10:03am 14.5 8.7 8.0 65 3.3 ESE 28 46 15 25 1016.9 1015.5 0.0
18/10:00am 14.4 9.0 7.9 65 3.3 ESE 26 43 14 23 1017.2 1015.8 0.0
18/09:30am 13.9 8.7 8.7 71 2.7 ESE 26 39 14 21 1016.9 1015.5 0.0
18/09:05am 13.1 7.0 8.2 72 2.5 ESE 30 48 16 26 1016.6 1015.2 0.0
18/09:00am 13.1 7.0 8.2 72 2.5 ESE 30 43 16 23 1016.6 1015.2 0.0
18/08:30am 13.2 7.4 8.1 71 2.6 ESE 28 44 15 24 1016.0 1014.7 0.0
18/08:00am 13.0 7.9 9.1 77 2.0 E 26 35 14 19 1015.8 1014.5 0.0
18/07:30am 13.1 8.5 9.7 80 1.8 E 24 44 13 24 1015.5 1014.2 0.0
18/07:00am 12.7 7.4 9.7 82 1.6 ESE 28 39 15 21 1015.5 1014.2 0.0
18/06:30am 12.4 7.8 8.1 75 2.2 ESE 22 35 12 19 1015.0 1013.6 0.0
18/06:00am 12.6 7.6 8.1 74 2.3 ESE 24 43 13 23 1014.5 1013.1 0.0
18/05:30am 12.7 7.4 8.4 75 2.2 ESE 26 37 14 20 1014.3 1012.9 0.0
18/05:00am 12.9 8.5 9.0 77 2.0 ESE 22 35 12 19 1014.2 1012.8 0.0
18/04:30am 12.7 8.1 8.2 74 2.3 SE 22 33 12 18 1014.0 1012.6 0.0
18/04:00am 12.6 8.4 8.3 75 2.2 SE 20 32 11 17 1014.0 1012.6 0.0
18/03:30am 12.5 8.5 9.0 79 1.8 SE 20 30 11 16 1014.1 1012.7 0.0
18/03:00am 12.4 8.2 8.3 76 2.1 SE 20 33 11 18 1014.1 1012.7 0.0
18/02:30am 12.4 7.9 8.5 77 2.0 SE 22 35 12 19 1014.2 1012.8 0.0
18/02:00am 12.5 8.0 8.4 76 2.1 SE 22 37 12 20 1014.2 1012.8 0.0
18/01:30am 12.6 8.1 8.5 76 2.1 SE 22 32 12 17 1014.3 1012.9 0.0
18/01:00am 12.7 8.5 8.4 75 2.2 SE 20 33 11 18 1014.4 1013.0 0.0
18/12:30am 12.8 8.7 8.5 75 2.2 SE 20 37 11 20 1014.5 1013.1 0.0

Latest Capital City Observations: Canberra | Sydney | Melbourne | Brisbane | Adelaide | Perth | Hobart | Darwin

Other formats

Comma delimited format used in spreadsheet applications
http://www.bom.gov.au/fwo/IDS60901/IDS60901.94683.axf

JavaScript Object Notation format (JSON) in row-major order
http://www.bom.gov.au/fwo/IDS60901/IDS60901.94683.json

Data quality

Most of these data are generated automatically and are frequently updated. Quality checks on data are not normally performed. It is possible for incorrect values to appear. Refer to information at About Latest Weather Observations and please check the disclaimer before using these data.